createdAt,value
2018-12-19T00:00:32.303Z,5.00
2018-12-19T00:02:59.837Z,5.00
2018-12-19T00:05:27.362Z,5.00
2018-12-19T00:07:54.913Z,5.00
2018-12-19T00:10:22.561Z,5.00
2018-12-19T00:12:50.205Z,5.00
2018-12-19T00:15:17.773Z,5.00
2018-12-19T00:17:45.276Z,5.00
2018-12-19T00:20:12.769Z,5.00
2018-12-19T00:22:40.485Z,5.00
2018-12-19T00:25:08.376Z,5.00
2018-12-19T00:27:35.898Z,5.00
2018-12-19T00:30:04.177Z,5.00
2018-12-19T00:32:31.676Z,5.00
2018-12-19T00:34:59.265Z,5.00
2018-12-19T00:37:26.944Z,5.00
2018-12-19T00:39:54.426Z,5.00
2018-12-19T00:42:21.977Z,5.00
2018-12-19T00:44:49.518Z,5.00
2018-12-19T00:47:16.992Z,5.00
2018-12-19T00:49:44.532Z,5.00
2018-12-19T00:52:12.032Z,5.00
2018-12-19T00:54:39.548Z,5.00
2018-12-19T00:57:07.088Z,5.00
2018-12-19T00:59:34.704Z,4.90
2018-12-19T01:02:02.462Z,5.00
2018-12-19T01:04:30.060Z,5.00
2018-12-19T01:06:57.677Z,4.90
2018-12-19T01:09:25.433Z,4.90
2018-12-19T01:11:52.972Z,4.90
2018-12-19T01:14:20.533Z,4.90
2018-12-19T01:16:48.037Z,4.90
2018-12-19T01:19:15.562Z,5.00
2018-12-19T01:21:43.113Z,5.00
2018-12-19T01:24:10.632Z,4.90
2018-12-19T01:26:38.136Z,5.00
2018-12-19T01:29:05.772Z,5.00
2018-12-19T01:31:33.364Z,5.00
2018-12-19T01:34:01.001Z,5.00
2018-12-19T01:36:28.602Z,4.90
2018-12-19T01:38:56.127Z,4.90
2018-12-19T01:41:23.644Z,4.90
2018-12-19T01:43:51.169Z,4.80
2018-12-19T01:46:18.686Z,4.90
2018-12-19T01:48:46.281Z,4.80
2018-12-19T01:51:13.976Z,4.90
2018-12-19T01:53:41.487Z,4.90
2018-12-19T01:56:09.063Z,5.10
2018-12-19T01:58:36.664Z,5.20
2018-12-19T02:01:04.258Z,5.40
2018-12-19T02:03:31.767Z,5.50
2018-12-19T02:05:59.273Z,5.70
2018-12-19T02:08:26.804Z,5.70
2018-12-19T02:10:54.417Z,5.80
2018-12-19T02:13:22.057Z,5.80
2018-12-19T02:15:49.642Z,5.90
2018-12-19T02:18:17.256Z,5.90
2018-12-19T02:20:44.789Z,5.80
2018-12-19T02:23:12.321Z,5.80
2018-12-19T02:25:39.841Z,5.80
2018-12-19T02:28:07.332Z,5.80
2018-12-19T02:30:35.002Z,5.80
2018-12-19T02:33:02.611Z,5.80
2018-12-19T02:35:30.316Z,5.80
2018-12-19T02:37:58.039Z,5.90
2018-12-19T02:40:25.520Z,5.90
2018-12-19T02:42:53.136Z,5.90
2018-12-19T02:45:20.641Z,5.90
2018-12-19T02:47:48.264Z,5.90
2018-12-19T02:50:15.785Z,5.90
2018-12-19T02:52:43.304Z,5.90
2018-12-19T02:55:10.897Z,5.90
2018-12-19T02:57:38.506Z,5.90
2018-12-19T03:00:06.865Z,5.90
2018-12-19T03:02:34.386Z,5.90
2018-12-19T03:05:01.900Z,5.90
2018-12-19T03:07:29.553Z,5.80
2018-12-19T03:09:57.078Z,5.80
2018-12-19T03:12:24.600Z,5.80
2018-12-19T03:14:52.137Z,5.90
2018-12-19T03:17:19.693Z,5.90
2018-12-19T03:19:47.251Z,5.80
2018-12-19T03:22:14.753Z,5.80
2018-12-19T03:24:42.381Z,5.80
2018-12-19T03:27:09.972Z,5.80
2018-12-19T03:29:37.625Z,5.80
2018-12-19T03:32:05.169Z,5.80
2018-12-19T03:34:32.772Z,5.80
2018-12-19T03:37:00.281Z,5.80
2018-12-19T03:39:28.030Z,5.90
2018-12-19T03:41:55.525Z,5.90
2018-12-19T03:44:23.044Z,6.00
2018-12-19T03:46:50.570Z,6.00
2018-12-19T03:49:18.223Z,6.00
2018-12-19T03:51:46.048Z,6.00
2018-12-19T03:54:13.569Z,6.00
2018-12-19T03:56:41.803Z,6.00
2018-12-19T03:59:09.522Z,6.00
2018-12-19T04:01:36.996Z,6.00
2018-12-19T04:04:04.538Z,6.00
2018-12-19T04:06:32.098Z,6.10
2018-12-19T04:08:59.576Z,6.10
2018-12-19T04:11:27.208Z,6.10
2018-12-19T04:13:54.730Z,6.10
2018-12-19T04:16:22.343Z,6.10
2018-12-19T04:18:49.837Z,6.10
2018-12-19T04:21:17.553Z,6.10
2018-12-19T04:23:45.053Z,6.10
2018-12-19T04:26:12.625Z,6.10
2018-12-19T04:28:40.128Z,6.20
2018-12-19T04:31:07.653Z,6.20
2018-12-19T04:33:35.178Z,6.20
2018-12-19T04:36:02.805Z,6.20
2018-12-19T04:38:30.528Z,6.20
2018-12-19T04:40:58.232Z,6.20
2018-12-19T04:43:25.736Z,6.20
2018-12-19T04:45:53.245Z,6.20
2018-12-19T04:48:20.764Z,6.20
2018-12-19T04:50:48.415Z,6.20
2018-12-19T04:53:15.908Z,6.20
2018-12-19T04:55:43.517Z,6.20
2018-12-19T04:58:11.036Z,6.20
2018-12-19T05:00:38.697Z,6.20
2018-12-19T05:03:06.176Z,6.20
2018-12-19T05:05:33.722Z,6.20
2018-12-19T05:08:01.211Z,6.10
2018-12-19T05:10:28.814Z,6.10
2018-12-19T05:12:56.416Z,6.10
2018-12-19T05:15:23.931Z,6.20
2018-12-19T05:17:51.452Z,6.30
2018-12-19T05:20:18.953Z,6.30
2018-12-19T05:22:46.644Z,6.30
2018-12-19T05:25:14.897Z,6.40
2018-12-19T05:27:42.380Z,6.40
2018-12-19T05:30:10.117Z,6.50
2018-12-19T05:32:37.868Z,6.50
2018-12-19T05:35:06.252Z,6.60
2018-12-19T05:37:33.748Z,6.60
2018-12-19T05:40:01.292Z,6.60
2018-12-19T05:42:29.037Z,6.60
2018-12-19T05:44:56.596Z,6.70
2018-12-19T05:47:24.400Z,6.70
2018-12-19T05:49:52.042Z,6.70
2018-12-19T05:52:21.583Z,6.70
2018-12-19T05:54:49.417Z,6.70
2018-12-19T05:57:17.641Z,6.70
2018-12-19T05:59:45.314Z,6.60
2018-12-19T06:02:12.849Z,6.60
2018-12-19T06:04:40.357Z,6.60
2018-12-19T06:07:07.881Z,6.60
2018-12-19T06:09:35.530Z,6.60
2018-12-19T06:12:03.120Z,6.60
2018-12-19T06:14:30.740Z,6.60
2018-12-19T06:16:58.241Z,6.60
2018-12-19T06:19:25.757Z,6.60
2018-12-19T06:21:53.265Z,6.60
2018-12-19T06:24:20.791Z,6.60
2018-12-19T06:26:48.372Z,6.60
2018-12-19T06:29:16.023Z,6.70
2018-12-19T06:31:43.553Z,6.70
2018-12-19T06:34:11.057Z,6.70
2018-12-19T06:36:38.712Z,6.70
2018-12-19T06:39:07.017Z,6.60
2018-12-19T06:41:34.645Z,6.70
2018-12-19T06:44:02.134Z,6.60
2018-12-19T06:46:29.674Z,6.70
2018-12-19T06:48:57.222Z,6.60
2018-12-19T06:51:24.778Z,6.70
2018-12-19T06:53:52.364Z,6.60
2018-12-19T06:56:19.917Z,6.70
2018-12-19T06:58:47.537Z,6.60
2018-12-19T07:01:15.052Z,6.70
2018-12-19T07:03:42.579Z,6.70
2018-12-19T07:06:10.137Z,6.60
2018-12-19T07:08:37.688Z,6.60
2018-12-19T07:11:05.194Z,6.60
2018-12-19T07:13:32.698Z,6.70
2018-12-19T07:16:00.261Z,6.60
2018-12-19T07:18:27.825Z,6.60
2018-12-19T07:20:55.790Z,6.60
2018-12-19T07:23:23.474Z,6.60
2018-12-19T07:25:51.079Z,6.60
2018-12-19T07:28:18.575Z,6.60
2018-12-19T07:30:46.228Z,6.50
2018-12-19T07:33:13.796Z,6.50
2018-12-19T07:35:41.859Z,6.50
2018-12-19T07:38:09.385Z,6.50
2018-12-19T07:40:36.925Z,6.50
2018-12-19T07:43:04.456Z,6.40
2018-12-19T07:45:32.093Z,6.40
2018-12-19T07:47:59.650Z,6.40
2018-12-19T07:50:27.169Z,6.40
2018-12-19T07:52:54.692Z,6.40
2018-12-19T07:55:22.429Z,6.40
2018-12-19T07:57:49.934Z,6.40
2018-12-19T08:00:17.480Z,6.40
2018-12-19T08:02:44.993Z,6.30
2018-12-19T08:05:12.512Z,6.30
2018-12-19T08:07:40.028Z,6.30
2018-12-19T08:10:07.733Z,6.30
2018-12-19T08:12:36.149Z,6.20
2018-12-19T08:15:04.444Z,6.20
2018-12-19T08:17:31.965Z,6.20
2018-12-19T08:19:59.563Z,6.20
2018-12-19T08:22:27.117Z,6.20
2018-12-19T08:24:54.613Z,6.20
2018-12-19T08:27:22.133Z,6.20
2018-12-19T08:29:49.686Z,6.20
2018-12-19T08:32:17.364Z,6.30
2018-12-19T08:34:44.880Z,6.30
2018-12-19T08:37:12.465Z,6.40
2018-12-19T08:39:40.301Z,6.40
2018-12-19T08:42:07.797Z,6.40
2018-12-19T08:44:35.304Z,6.40
2018-12-19T08:47:02.902Z,6.40
2018-12-19T08:49:30.550Z,6.50
2018-12-19T08:51:58.052Z,6.50
2018-12-19T08:54:25.638Z,6.50
2018-12-19T08:56:53.300Z,6.50
2018-12-19T08:59:20.844Z,6.50
2018-12-19T09:01:48.344Z,6.50
2018-12-19T09:04:15.904Z,6.50
2018-12-19T09:06:43.427Z,6.60
2018-12-19T09:09:10.957Z,6.60
2018-12-19T09:11:38.481Z,6.60
2018-12-19T09:14:05.993Z,6.60
2018-12-19T09:16:33.512Z,6.70
2018-12-19T09:19:01.024Z,6.80
2018-12-19T09:21:28.660Z,6.80
2018-12-19T09:23:56.283Z,6.90
2018-12-19T09:26:23.840Z,7.00
2018-12-19T09:28:51.332Z,7.00
2018-12-19T09:31:19.009Z,7.00
2018-12-19T09:33:46.525Z,7.10
2018-12-19T09:36:14.044Z,7.10
2018-12-19T09:38:41.578Z,7.20
2018-12-19T09:41:12.239Z,7.30
2018-12-19T09:43:38.808Z,7.40
2018-12-19T09:46:06.440Z,7.50
2018-12-19T09:48:34.044Z,7.60
2018-12-19T09:51:01.532Z,7.70
2018-12-19T09:53:29.128Z,7.70
2018-12-19T09:55:56.798Z,7.70
2018-12-19T09:58:24.359Z,7.70
2018-12-19T10:00:51.915Z,7.70
2018-12-19T10:03:19.500Z,7.70
2018-12-19T10:05:47.011Z,7.70
2018-12-19T10:08:14.649Z,7.70
2018-12-19T10:10:42.140Z,7.70
2018-12-19T10:13:09.649Z,7.60
2018-12-19T10:15:37.156Z,7.60
2018-12-19T10:18:04.663Z,7.60
2018-12-19T10:20:32.385Z,7.70
2018-12-19T10:22:59.886Z,7.70
2018-12-19T10:25:27.505Z,7.80
2018-12-19T10:27:55.002Z,7.90
2018-12-19T10:30:22.613Z,7.90
2018-12-19T10:32:52.137Z,8.00
2018-12-19T10:35:19.659Z,8.10
2018-12-19T10:37:47.169Z,8.10
2018-12-19T10:40:14.696Z,8.10
2018-12-19T10:42:42.256Z,8.10
2018-12-19T10:45:10.169Z,8.20
2018-12-19T10:47:37.685Z,8.30
2018-12-19T10:50:06.777Z,8.40
2018-12-19T10:52:34.372Z,8.60
2018-12-19T10:55:01.881Z,8.70
2018-12-19T10:57:29.411Z,8.70
2018-12-19T10:59:56.906Z,8.70
2018-12-19T11:02:24.421Z,8.60
2018-12-19T11:04:52.061Z,8.60
2018-12-19T11:07:19.552Z,8.70
2018-12-19T11:09:47.076Z,8.70
2018-12-19T11:12:14.742Z,8.90
2018-12-19T11:14:42.465Z,9.00
2018-12-19T11:17:10.331Z,9.10
2018-12-19T11:19:37.892Z,9.20
2018-12-19T11:22:07.494Z,9.10
2018-12-19T11:24:35.035Z,9.10
2018-12-19T11:27:02.721Z,9.10
2018-12-19T11:29:30.405Z,9.00
2018-12-19T11:31:57.935Z,9.00
2018-12-19T11:34:25.458Z,9.10
2018-12-19T11:36:53.113Z,9.10
2018-12-19T11:39:20.644Z,9.10
2018-12-19T11:41:48.137Z,9.10
2018-12-19T11:44:15.685Z,9.20
2018-12-19T11:46:43.236Z,9.20
2018-12-19T11:49:10.777Z,9.40
2018-12-19T11:51:38.303Z,9.40
2018-12-19T11:54:05.862Z,9.50
2018-12-19T11:56:33.459Z,9.60
2018-12-19T11:59:01.120Z,9.70
2018-12-19T12:01:28.617Z,9.70
2018-12-19T12:03:56.144Z,9.50
2018-12-19T12:06:23.962Z,9.60
2018-12-19T12:08:51.565Z,9.60
2018-12-19T12:11:19.065Z,9.80
2018-12-19T12:13:46.745Z,10.00
2018-12-19T12:16:14.325Z,10.10
2018-12-19T12:18:41.828Z,10.30
2018-12-19T12:21:09.353Z,10.40
2018-12-19T12:23:36.880Z,10.50
2018-12-19T12:26:04.535Z,10.50
2018-12-19T12:28:32.048Z,10.40
2018-12-19T12:30:59.564Z,10.20
2018-12-19T12:33:27.082Z,10.00
2018-12-19T12:35:54.798Z,9.90
2018-12-19T12:38:22.533Z,9.80
2018-12-19T12:40:50.102Z,9.70
2018-12-19T12:43:17.617Z,9.60
2018-12-19T12:45:45.181Z,9.50
2018-12-19T12:48:12.697Z,9.50
2018-12-19T12:50:40.197Z,9.40
2018-12-19T12:53:07.706Z,9.30
2018-12-19T12:55:35.224Z,9.30
2018-12-19T12:58:02.825Z,9.20
2018-12-19T13:00:30.329Z,9.20
2018-12-19T13:02:57.864Z,9.20
2018-12-19T13:05:25.474Z,9.20
2018-12-19T13:07:52.976Z,9.20
2018-12-19T13:10:20.493Z,9.20
2018-12-19T13:12:48.046Z,9.20
2018-12-19T13:15:17.552Z,9.20
2018-12-19T13:17:45.418Z,9.10
2018-12-19T13:20:12.905Z,9.10
2018-12-19T13:22:40.535Z,9.10
2018-12-19T13:25:08.094Z,9.10
2018-12-19T13:27:35.737Z,9.00
2018-12-19T13:30:04.133Z,9.00
2018-12-19T13:32:31.648Z,9.00
2018-12-19T13:34:59.153Z,8.90
2018-12-19T13:37:27.589Z,8.90
2018-12-19T13:39:55.272Z,9.00
2018-12-19T13:42:22.776Z,9.00
2018-12-19T13:44:50.332Z,9.00
2018-12-19T13:47:17.861Z,9.10
2018-12-19T13:49:45.428Z,9.20
2018-12-19T13:52:12.929Z,9.20
2018-12-19T13:54:40.477Z,9.20
2018-12-19T13:57:08.097Z,9.10
2018-12-19T13:59:35.661Z,9.10
2018-12-19T14:02:03.240Z,9.00
2018-12-19T14:04:31.082Z,9.00
2018-12-19T14:06:59.169Z,9.00
2018-12-19T14:09:26.728Z,9.00
2018-12-19T14:11:54.265Z,9.00
2018-12-19T14:14:21.844Z,9.00
2018-12-19T14:16:49.361Z,8.90
2018-12-19T14:19:16.873Z,8.90
2018-12-19T14:21:44.507Z,8.80
2018-12-19T14:24:12.212Z,8.70
2018-12-19T14:26:39.732Z,8.60
2018-12-19T14:29:07.330Z,8.50
2018-12-19T14:31:34.843Z,8.50
2018-12-19T14:34:02.360Z,8.40
2018-12-19T14:36:29.862Z,8.30
2018-12-19T14:38:57.386Z,8.30
2018-12-19T14:41:24.905Z,8.20
2018-12-19T14:43:52.532Z,8.10
2018-12-19T14:46:20.091Z,8.10
2018-12-19T14:48:47.567Z,8.10
2018-12-19T14:51:15.080Z,8.00
2018-12-19T14:53:42.589Z,8.00
2018-12-19T14:56:10.153Z,8.00
2018-12-19T14:58:37.757Z,7.90
2018-12-19T15:01:05.349Z,7.90
2018-12-19T15:03:32.868Z,7.80
2018-12-19T15:06:00.464Z,7.80
2018-12-19T15:08:28.015Z,7.70
2018-12-19T15:10:55.575Z,7.60
2018-12-19T15:13:23.081Z,7.60
2018-12-19T15:16:07.541Z,7.50
2018-12-19T15:18:35.148Z,7.50
2018-12-19T15:21:02.665Z,7.50
2018-12-19T15:23:30.251Z,7.40
2018-12-19T15:25:57.819Z,7.30
2018-12-19T15:28:25.308Z,7.30
2018-12-19T15:30:52.828Z,7.30
2018-12-19T15:33:20.359Z,7.20
2018-12-19T15:35:47.963Z,7.20
2018-12-19T15:38:15.471Z,7.20
2018-12-19T15:40:43.017Z,7.20
2018-12-19T15:43:10.632Z,7.10
2018-12-19T15:45:38.110Z,7.10
2018-12-19T15:48:05.647Z,7.10
2018-12-19T15:50:33.270Z,7.10
2018-12-19T15:53:00.809Z,7.10
2018-12-19T15:55:28.371Z,7.10
2018-12-19T15:57:55.864Z,7.20
2018-12-19T16:00:23.401Z,7.20
2018-12-19T16:02:50.913Z,7.20
2018-12-19T16:05:18.454Z,7.20
2018-12-19T16:07:46.116Z,7.10
2018-12-19T16:10:13.646Z,7.10
2018-12-19T16:12:41.169Z,7.10
2018-12-19T16:15:08.793Z,7.00
2018-12-19T16:17:36.351Z,7.00
2018-12-19T16:20:05.665Z,7.00
2018-12-19T16:22:33.196Z,6.90
2018-12-19T16:25:00.695Z,7.00
2018-12-19T16:27:28.275Z,7.00
2018-12-19T16:29:55.889Z,7.00
2018-12-19T16:32:23.425Z,7.00
2018-12-19T16:34:51.340Z,7.10
2018-12-19T16:37:18.981Z,7.10
2018-12-19T16:39:46.522Z,7.10
2018-12-19T16:42:14.130Z,7.20
2018-12-19T16:44:41.690Z,7.30
2018-12-19T16:47:09.226Z,7.20
2018-12-19T16:49:36.767Z,7.20
2018-12-19T16:52:04.264Z,7.20
2018-12-19T16:54:31.793Z,7.20
2018-12-19T16:56:59.292Z,7.30
2018-12-19T16:59:26.936Z,7.30
2018-12-19T17:01:54.505Z,7.20
2018-12-19T17:04:22.033Z,7.10
2018-12-19T17:06:49.769Z,7.10
2018-12-19T17:09:17.268Z,7.00
2018-12-19T17:11:44.772Z,7.00
2018-12-19T17:14:12.336Z,7.00
2018-12-19T17:16:40.074Z,6.90
2018-12-19T17:19:07.674Z,6.90
2018-12-19T17:21:36.301Z,6.90
2018-12-19T17:24:03.916Z,6.80
2018-12-19T17:26:31.432Z,6.80
2018-12-19T17:28:58.981Z,6.70
2018-12-19T17:31:26.492Z,6.70
2018-12-19T17:33:53.989Z,6.70
2018-12-19T17:36:21.711Z,6.60
2018-12-19T17:38:49.211Z,6.60
2018-12-19T17:41:16.835Z,6.60
2018-12-19T17:43:44.362Z,6.60
2018-12-19T17:46:11.920Z,6.50
2018-12-19T17:48:39.710Z,6.50
2018-12-19T17:51:07.200Z,6.50
2018-12-19T17:53:34.716Z,6.60
2018-12-19T17:56:02.234Z,6.60
2018-12-19T17:58:30.013Z,6.70
2018-12-19T18:00:57.709Z,6.80
2018-12-19T18:03:25.270Z,6.80
2018-12-19T18:05:52.752Z,6.80
2018-12-19T18:08:20.351Z,6.80
2018-12-19T18:10:47.838Z,6.80
2018-12-19T18:13:15.342Z,6.70
2018-12-19T18:15:42.903Z,6.70
2018-12-19T18:18:10.418Z,6.70
2018-12-19T18:20:37.917Z,6.70
2018-12-19T18:23:05.448Z,6.70
2018-12-19T18:25:33.194Z,6.70
2018-12-19T18:28:00.763Z,6.70
2018-12-19T18:30:28.386Z,6.70
2018-12-19T18:32:55.982Z,6.70
2018-12-19T18:35:23.528Z,6.70
2018-12-19T18:37:51.037Z,6.80
2018-12-19T18:40:18.565Z,6.90
2018-12-19T18:42:46.049Z,7.00
2018-12-19T18:45:13.583Z,7.10
2018-12-19T18:47:41.114Z,7.20
2018-12-19T18:50:08.728Z,7.20
2018-12-19T18:52:36.390Z,7.30
2018-12-19T18:55:04.916Z,7.30
2018-12-19T18:57:32.519Z,7.30
2018-12-19T19:00:00.156Z,7.30
2018-12-19T19:02:27.849Z,7.30
2018-12-19T19:04:55.465Z,7.30
2018-12-19T19:07:22.992Z,7.40
2018-12-19T19:09:50.606Z,7.40
2018-12-19T19:12:18.241Z,7.40
2018-12-19T19:14:45.808Z,7.40
2018-12-19T19:17:13.321Z,7.40
2018-12-19T19:19:40.829Z,7.40
2018-12-19T19:22:08.477Z,7.40
2018-12-19T19:24:35.961Z,7.40
2018-12-19T19:27:03.484Z,7.50
2018-12-19T19:29:30.986Z,7.50
2018-12-19T19:31:58.617Z,7.50
2018-12-19T19:34:26.190Z,7.50
2018-12-19T19:36:53.830Z,7.50
2018-12-19T19:39:21.306Z,7.50
2018-12-19T19:41:48.948Z,7.50
2018-12-19T19:44:16.458Z,7.40
2018-12-19T19:46:45.534Z,7.40
2018-12-19T19:49:13.422Z,7.40
2018-12-19T19:51:40.890Z,7.40
2018-12-19T19:54:08.414Z,7.40
2018-12-19T19:56:36.044Z,7.50
2018-12-19T19:59:03.548Z,7.50
2018-12-19T20:01:31.061Z,7.50
2018-12-19T20:03:58.586Z,7.50
2018-12-19T20:06:26.109Z,7.40
2018-12-19T20:08:53.630Z,7.40
2018-12-19T20:11:21.168Z,7.40
2018-12-19T20:13:48.645Z,7.30
2018-12-19T20:16:16.312Z,7.30
2018-12-19T20:18:43.905Z,7.20
2018-12-19T20:21:11.426Z,7.30
2018-12-19T20:23:38.932Z,7.30
2018-12-19T20:26:06.573Z,7.30
2018-12-19T20:28:34.208Z,7.30
2018-12-19T20:31:01.690Z,7.20
2018-12-19T20:33:29.318Z,7.20
2018-12-19T20:35:56.916Z,7.20
2018-12-19T20:38:24.475Z,7.10
2018-12-19T20:40:51.994Z,7.10
2018-12-19T20:43:19.500Z,7.00
2018-12-19T20:45:47.043Z,7.00
2018-12-19T20:48:14.581Z,7.00
2018-12-19T20:50:42.097Z,7.00
2018-12-19T20:53:09.644Z,7.00
2018-12-19T20:55:37.263Z,7.00
2018-12-19T20:58:04.874Z,7.00
2018-12-19T21:00:32.479Z,7.00
2018-12-19T21:03:00.132Z,7.00
2018-12-19T21:05:27.640Z,7.00
2018-12-19T21:07:55.184Z,7.00
2018-12-19T21:10:22.806Z,7.00
2018-12-19T21:12:50.419Z,7.00
2018-12-19T21:15:17.944Z,7.00
2018-12-19T21:17:50.973Z,7.10
2018-12-19T21:20:18.515Z,7.10
2018-12-19T21:22:46.024Z,7.10
2018-12-19T21:25:13.569Z,7.10
2018-12-19T21:27:41.168Z,7.10
2018-12-19T21:30:09.072Z,7.10
2018-12-19T21:32:36.701Z,7.10
2018-12-19T21:35:04.390Z,7.20
2018-12-19T21:37:31.994Z,7.20
2018-12-19T21:39:59.620Z,7.20
2018-12-19T21:42:27.214Z,7.30
2018-12-19T21:44:54.832Z,7.30
2018-12-19T21:47:22.449Z,7.40
2018-12-19T21:49:49.950Z,7.40
2018-12-19T21:52:17.485Z,7.40
2018-12-19T21:54:45.081Z,7.40
2018-12-19T21:57:12.784Z,7.50
2018-12-19T21:59:40.354Z,7.50
2018-12-19T22:02:08.048Z,7.40
2018-12-19T22:04:35.546Z,7.50
2018-12-19T22:07:03.363Z,7.50
2018-12-19T22:09:30.988Z,7.50
2018-12-19T22:11:58.747Z,7.50
2018-12-19T22:14:26.382Z,7.50
2018-12-19T22:16:59.790Z,7.40
2018-12-19T22:19:27.347Z,7.40
2018-12-19T22:21:54.899Z,7.40
2018-12-19T22:24:22.608Z,7.40
2018-12-19T22:26:50.195Z,7.40
2018-12-19T22:29:17.786Z,7.40
2018-12-19T22:31:45.625Z,7.40
2018-12-19T22:34:13.248Z,7.30
2018-12-19T22:36:40.805Z,7.30
2018-12-19T22:39:10.979Z,7.30
2018-12-19T22:41:38.537Z,7.30
2018-12-19T22:44:08.097Z,7.30
2018-12-19T22:46:35.738Z,7.20
2018-12-19T22:49:03.472Z,7.30
2018-12-19T22:51:31.118Z,7.30
2018-12-19T22:53:58.823Z,7.30
2018-12-19T22:56:26.430Z,7.30
2018-12-19T22:58:53.932Z,7.30
2018-12-19T23:01:27.331Z,7.30
2018-12-19T23:04:11.947Z,7.30
2018-12-19T23:06:39.947Z,7.30
2018-12-19T23:09:07.557Z,7.30
2018-12-19T23:11:35.134Z,7.30
2018-12-19T23:14:02.940Z,7.30
2018-12-19T23:16:30.743Z,7.30
2018-12-19T23:18:58.423Z,7.40
2018-12-19T23:21:26.043Z,7.40
2018-12-19T23:23:53.649Z,7.40
2018-12-19T23:26:21.435Z,7.40
2018-12-19T23:28:51.018Z,7.40
2018-12-19T23:31:18.600Z,7.40
2018-12-19T23:38:56.538Z,7.40
2018-12-19T23:41:24.151Z,7.40
2018-12-19T23:43:51.941Z,7.50
2018-12-19T23:46:19.585Z,7.50
2018-12-19T23:48:47.177Z,7.50
2018-12-19T23:51:14.776Z,7.50
2018-12-19T23:53:42.500Z,7.50
2018-12-19T23:56:10.006Z,7.50
2018-12-19T23:58:37.649Z,7.50
